createdAt,value
2023-02-17T08:32:42.744Z,0
2023-02-17T08:33:52.378Z,12.640076
2023-02-17T08:35:02.108Z,12.650146
2023-02-17T08:36:10.746Z,12.680359
2023-02-17T08:37:19.413Z,12.7005
2023-02-17T08:38:29.077Z,12.730713
2023-02-17T08:39:37.748Z,12.730713
2023-02-17T08:40:47.395Z,12.750854
2023-02-17T08:41:56.072Z,12.730713
2023-02-17T08:43:05.694Z,12.750854
2023-02-17T08:44:15.423Z,12.760925
2023-02-17T08:45:24.165Z,12.750854
2023-02-17T08:46:32.820Z,12.791138
2023-02-17T08:47:42.414Z,12.82135
2023-02-17T08:48:52.156Z,12.801208
2023-02-17T08:50:01.794Z,12.801208
2023-02-17T08:51:11.454Z,12.801208
2023-02-17T08:52:20.108Z,12.82135
2023-02-17T08:53:28.792Z,12.831421
2023-02-17T08:54:37.459Z,12.851562
2023-02-17T08:55:49.384Z,12.871704
2023-02-17T08:56:56.762Z,12.861633
2023-02-17T08:58:05.438Z,12.901917
2023-02-17T08:59:15.096Z,12.901917
2023-02-17T09:00:23.782Z,12.871704
2023-02-17T09:01:32.448Z,12.871704
2023-02-17T09:02:42.038Z,12.861633
2023-02-17T09:03:49.707Z,12.901917
2023-02-17T09:04:59.401Z,12.901917
2023-02-17T09:06:09.301Z,12.901917
2023-02-17T09:07:16.693Z,12.911987
2023-02-17T09:08:26.372Z,12.901917
2023-02-17T09:09:35.042Z,12.901917
2023-02-17T09:10:43.736Z,12.901917
2023-02-17T09:11:53.480Z,12.932129
2023-02-17T09:13:01.208Z,12.911987
2023-02-17T09:14:09.770Z,12.871704
2023-02-17T09:15:19.471Z,12.791138
2023-02-17T09:16:27.199Z,12.640076
2023-02-17T09:17:36.739Z,12.489014
2023-02-17T09:18:45.375Z,12.348022
2023-02-17T09:19:54.054Z,12.217102
2023-02-17T09:21:03.805Z,12.166748
2023-02-17T09:22:26.196Z,12.116394
2023-02-17T09:23:24.117Z,12.015686
2023-02-17T09:24:33.745Z,11.884766
2023-02-17T09:25:43.399Z,11.834412
2023-02-17T09:26:53.100Z,11.804199
2023-02-17T09:28:01.761Z,11.804199
2023-02-17T09:29:09.452Z,11.834412
2023-02-17T09:30:19.177Z,11.884766
2023-02-17T09:31:27.896Z,11.914978
2023-02-17T09:32:36.468Z,11.985474
2023-02-17T09:33:46.204Z,12.025757
2023-02-17T09:34:54.904Z,12.086182
2023-02-17T09:36:04.804Z,12.176819
2023-02-17T09:37:13.197Z,12.217102
2023-02-17T09:38:22.886Z,12.307739
2023-02-17T09:39:33.489Z,12.388306
2023-02-17T09:40:42.349Z,12.44873
2023-02-17T09:41:52.196Z,12.499084
2023-02-17T09:43:01.659Z,12.549438
2023-02-17T09:44:09.291Z,12.56958
2023-02-17T09:45:18.016Z,12.579651
2023-02-17T09:46:26.637Z,12.609863
2023-02-17T09:47:36.274Z,12.609863
2023-02-17T09:48:45.985Z,12.619934
2023-02-17T09:49:53.624Z,12.650146
2023-02-17T09:51:02.260Z,12.7005
2023-02-17T09:52:12.995Z,12.720642
2023-02-17T09:53:20.614Z,12.750854
2023-02-17T09:54:30.217Z,12.781067
2023-02-17T09:55:39.905Z,12.791138
2023-02-17T09:56:49.602Z,12.831421
2023-02-17T09:57:59.243Z,12.831421
2023-02-17T09:59:07.923Z,12.831421
2023-02-17T10:00:16.645Z,12.901917
2023-02-17T10:01:26.260Z,12.952271
2023-02-17T10:02:34.891Z,12.982483
2023-02-17T10:03:44.724Z,13.042908
2023-02-17T10:04:54.323Z,13.083191
2023-02-17T10:06:02.912Z,13.113403
2023-02-17T10:07:11.621Z,13.083191
2023-02-17T10:08:21.242Z,13.093262
2023-02-17T10:09:29.904Z,13.093262
2023-02-17T10:10:39.684Z,13.123474
2023-02-17T10:11:47.949Z,13.123474
2023-02-17T10:12:57.647Z,13.133545
2023-02-17T10:14:04.280Z,13.183899
2023-02-17T10:15:15.143Z,13.234253
2023-02-17T10:16:22.638Z,13.284607
2023-02-17T10:17:31.354Z,13.365173
2023-02-17T10:18:40.946Z,13.465881
2023-02-17T10:19:49.576Z,13.536377
2023-02-17T10:20:58.325Z,13.627014
2023-02-17T10:22:06.919Z,13.69751
2023-02-17T10:23:15.571Z,13.788147
2023-02-17T10:24:25.235Z,13.989563
2023-02-17T10:25:34.021Z,14.070129
2023-02-17T10:26:45.203Z,14.140625
2023-02-17T10:27:53.357Z,14.221191
2023-02-17T10:29:01.964Z,14.180908
2023-02-17T10:30:11.791Z,14.180908
2023-02-17T10:31:21.508Z,14.029846
2023-02-17T10:32:30.207Z,13.989563
2023-02-17T10:33:39.642Z,13.959351
2023-02-17T10:34:49.314Z,13.959351
2023-02-17T10:35:57.964Z,13.969421
2023-02-17T10:37:07.687Z,13.999634
2023-02-17T10:38:16.407Z,13.969421
2023-02-17T10:39:24.900Z,14.039917
2023-02-17T10:40:34.574Z,14.039917
2023-02-17T10:41:42.265Z,14.070129
2023-02-17T10:42:51.939Z,14.070129
2023-02-17T10:44:01.553Z,14.110413
2023-02-17T10:45:09.219Z,14.100342
2023-02-17T10:46:18.888Z,14.100342
2023-02-17T10:47:27.563Z,14.070129
2023-02-17T10:48:36.203Z,14.029846
2023-02-17T10:49:45.896Z,14.0802
2023-02-17T10:50:53.555Z,14.231262
2023-02-17T10:52:03.211Z,14.362183
2023-02-17T10:53:11.862Z,14.483032
2023-02-17T10:54:21.520Z,14.624023
2023-02-17T10:55:31.192Z,14.734802
2023-02-17T10:56:38.838Z,14.70459
2023-02-17T10:57:48.517Z,14.664307
2023-02-17T10:58:58.137Z,14.815369
2023-02-17T11:00:07.817Z,14.855652
2023-02-17T11:01:17.480Z,14.775085
2023-02-17T11:02:26.132Z,14.694519
2023-02-17T11:03:33.782Z,14.724731
2023-02-17T11:04:43.426Z,14.724731
2023-02-17T11:05:52.086Z,14.765015
2023-02-17T11:07:00.746Z,14.906006
2023-02-17T11:08:09.419Z,15.107422
2023-02-17T11:09:18.124Z,15.248413
2023-02-17T11:10:27.792Z,15.218201
2023-02-17T11:11:37.449Z,15.349121
2023-02-17T11:12:45.100Z,15.278625
2023-02-17T11:13:54.807Z,15.288696
2023-02-17T11:15:04.440Z,15.248413
2023-02-17T11:16:14.537Z,15.177917
2023-02-17T11:17:23.756Z,15.137634
2023-02-17T11:18:32.416Z,15.036926
2023-02-17T11:19:42.094Z,14.916077
2023-02-17T11:20:51.802Z,14.845581
2023-02-17T11:22:01.463Z,14.875793
2023-02-17T11:23:12.144Z,14.855652
2023-02-17T11:24:19.796Z,14.83551
2023-02-17T11:25:28.470Z,14.906006
2023-02-17T11:26:38.138Z,14.95636
2023-02-17T11:27:46.796Z,14.996643
2023-02-17T11:28:56.480Z,15.026855
2023-02-17T11:30:06.206Z,15.016785
2023-02-17T11:31:15.977Z,15.147705
2023-02-17T11:32:25.519Z,15.187988
2023-02-17T11:33:33.185Z,15.187988
2023-02-17T11:34:42.819Z,15.167847
2023-02-17T11:35:52.559Z,15.167847
2023-02-17T11:37:01.367Z,15.238342
2023-02-17T11:38:11.037Z,15.328979
2023-02-17T11:39:19.699Z,15.520325
2023-02-17T11:40:28.364Z,15.641174
2023-02-17T11:41:38.077Z,15.681458
2023-02-17T11:42:45.847Z,15.83252
2023-02-17T11:43:54.489Z,15.973511
2023-02-17T11:45:04.152Z,16.003723
2023-02-17T11:46:12.987Z,15.913086
2023-02-17T11:47:22.598Z,15.772095
2023-02-17T11:48:31.272Z,15.83252
2023-02-17T11:49:38.927Z,16.013794
2023-02-17T11:50:48.603Z,16.023865
2023-02-17T11:51:57.281Z,15.913086
2023-02-17T11:53:05.942Z,15.84259
2023-02-17T11:54:15.687Z,15.721741
2023-02-17T11:55:24.325Z,15.610962
2023-02-17T11:56:34.020Z,15.681458
2023-02-17T11:57:45.067Z,15.721741
2023-02-17T11:58:51.314Z,15.731812
2023-02-17T12:00:00.981Z,15.59082
2023-02-17T12:01:09.718Z,15.520325
2023-02-17T12:02:19.388Z,15.58075
2023-02-17T12:03:29.117Z,15.4599
2023-02-17T12:04:37.754Z,15.359192
2023-02-17T12:05:47.394Z,15.369263
2023-02-17T12:06:57.103Z,15.369263
2023-02-17T12:08:05.778Z,15.399475
2023-02-17T12:09:15.440Z,15.328979
2023-02-17T12:10:24.105Z,15.278625
2023-02-17T12:11:32.774Z,15.288696
2023-02-17T12:12:40.434Z,15.278625
2023-02-17T12:13:49.088Z,15.238342
2023-02-17T12:14:58.724Z,15.177917
2023-02-17T12:16:06.674Z,15.187988
2023-02-17T12:17:16.077Z,15.278625
2023-02-17T12:18:24.757Z,15.349121
2023-02-17T12:19:36.942Z,15.701599
2023-02-17T12:20:44.100Z,15.913086
2023-02-17T12:21:52.789Z,15.913086
2023-02-17T12:23:01.449Z,16.124573
2023-02-17T12:24:11.123Z,16.416626
2023-02-17T12:25:18.800Z,16.607971
2023-02-17T12:26:28.434Z,16.708679
2023-02-17T12:27:37.106Z,16.305847
2023-02-17T12:28:46.748Z,16.013794
2023-02-17T12:29:55.434Z,15.913086
2023-02-17T12:31:04.252Z,15.923157
2023-02-17T12:32:13.809Z,15.681458
2023-02-17T12:33:23.465Z,15.520325
2023-02-17T12:34:33.159Z,15.389404
2023-02-17T12:35:42.793Z,15.248413
2023-02-17T12:36:51.484Z,15.288696
2023-02-17T12:38:01.149Z,15.187988
2023-02-17T12:39:10.840Z,15.187988
2023-02-17T12:40:19.463Z,15.137634
2023-02-17T12:41:29.163Z,15.147705
2023-02-17T12:42:38.859Z,15.097351
2023-02-17T12:43:49.399Z,15.097351
2023-02-17T12:44:58.205Z,15.187988
2023-02-17T12:46:07.374Z,15.278625
2023-02-17T12:47:14.654Z,15.429688
2023-02-17T12:48:24.325Z,15.4599
2023-02-17T12:49:31.983Z,15.419617
2023-02-17T12:50:41.667Z,15.399475
2023-02-17T12:51:51.322Z,15.248413
2023-02-17T12:52:58.968Z,15.177917
2023-02-17T12:54:08.639Z,15.167847
2023-02-17T12:55:19.289Z,15.20813
2023-02-17T12:56:25.960Z,15.097351
2023-02-17T12:57:35.617Z,15.026855
2023-02-17T12:58:43.269Z,14.916077
2023-02-17T12:59:51.915Z,14.815369
2023-02-17T13:01:01.615Z,14.83551
2023-02-17T13:02:11.293Z,14.845581
2023-02-17T13:03:21.049Z,14.885864
2023-02-17T13:04:29.703Z,14.805298
2023-02-17T13:05:38.370Z,14.785156
2023-02-17T13:06:48.080Z,14.815369
2023-02-17T13:07:57.710Z,14.765015
2023-02-17T13:09:06.354Z,14.765015
2023-02-17T13:10:16.064Z,14.724731
2023-02-17T13:11:24.724Z,14.765015
2023-02-17T13:12:34.405Z,14.694519
2023-02-17T13:13:44.050Z,14.684448
2023-02-17T13:14:51.727Z,14.684448
2023-02-17T13:16:01.441Z,14.694519
2023-02-17T13:17:10.176Z,14.724731
2023-02-17T13:18:19.834Z,14.654236
2023-02-17T13:19:29.553Z,14.553528
2023-02-17T13:20:38.220Z,14.58374
2023-02-17T13:21:47.919Z,14.553528
2023-02-17T13:22:56.735Z,14.543457
2023-02-17T13:24:06.264Z,14.543457
2023-02-17T13:25:15.932Z,14.543457
2023-02-17T13:26:23.654Z,14.553528
2023-02-17T13:27:33.312Z,14.553528
2023-02-17T13:28:42.953Z,14.58374
2023-02-17T13:29:52.620Z,14.533386
2023-02-17T13:31:02.454Z,14.483032
2023-02-17T13:32:12.120Z,14.483032
2023-02-17T13:33:19.701Z,14.483032
2023-02-17T13:34:29.443Z,14.503174
2023-02-17T13:35:38.114Z,14.483032
2023-02-17T13:36:46.762Z,14.513245
2023-02-17T13:37:56.463Z,14.513245
2023-02-17T13:39:04.138Z,14.503174
2023-02-17T13:40:13.771Z,14.472961
2023-02-17T13:41:23.463Z,14.412537
2023-02-17T13:42:32.146Z,14.362183
2023-02-17T13:43:41.815Z,14.352112
2023-02-17T13:44:49.470Z,14.301758
2023-02-17T13:45:58.175Z,14.291687
2023-02-17T13:47:07.818Z,14.261475
2023-02-17T13:48:15.452Z,14.291687
2023-02-17T13:49:26.113Z,14.291687
2023-02-17T13:50:35.826Z,14.281616
2023-02-17T13:51:43.627Z,14.261475
2023-02-17T13:52:52.331Z,14.231262
2023-02-17T13:54:00.969Z,14.221191
2023-02-17T13:55:09.639Z,14.221191
2023-02-17T13:56:19.274Z,14.20105
2023-02-17T13:57:27.951Z,14.170837
2023-02-17T13:58:37.630Z,14.150696
2023-02-17T13:59:47.273Z,14.180908
2023-02-17T14:00:55.913Z,14.180908
2023-02-17T14:02:05.584Z,14.170837
2023-02-17T14:03:14.244Z,14.180908
2023-02-17T14:04:22.895Z,14.20105
2023-02-17T14:05:32.564Z,14.180908
2023-02-17T14:06:40.199Z,14.170837
2023-02-17T14:07:49.868Z,14.170837
2023-02-17T14:08:58.533Z,14.150696
2023-02-17T14:10:08.204Z,14.110413
2023-02-17T14:11:16.886Z,14.140625
2023-02-17T14:12:26.506Z,14.180908
2023-02-17T14:13:36.195Z,14.231262
2023-02-17T14:14:43.852Z,14.251404
2023-02-17T14:15:52.539Z,14.231262
2023-02-17T14:17:01.155Z,14.221191
2023-02-17T14:18:08.842Z,14.221191
2023-02-17T14:19:18.490Z,14.20105
2023-02-17T14:20:27.142Z,14.180908
2023-02-17T14:21:34.778Z,14.150696
2023-02-17T14:22:50.832Z,14.140625
2023-02-17T14:23:55.107Z,14.110413
2023-02-17T14:25:03.754Z,14.120483
2023-02-17T14:26:13.436Z,14.110413
2023-02-17T14:27:22.154Z,14.100342
2023-02-17T14:28:31.815Z,14.110413
2023-02-17T14:29:40.454Z,14.120483
2023-02-17T14:30:49.303Z,14.140625
2023-02-17T14:31:58.931Z,14.140625
2023-02-17T14:33:06.502Z,14.150696
2023-02-17T14:34:15.154Z,14.140625
2023-02-17T14:35:24.912Z,14.120483
2023-02-17T14:36:33.552Z,14.120483
2023-02-17T14:37:42.178Z,14.150696
2023-02-17T14:38:51.863Z,14.150696
2023-02-17T14:39:59.515Z,14.150696
2023-02-17T14:41:09.298Z,14.170837
2023-02-17T14:42:18.873Z,14.150696
2023-02-17T14:43:27.635Z,14.170837
2023-02-17T14:44:37.272Z,14.150696
2023-02-17T14:45:44.980Z,14.180908
2023-02-17T14:46:54.636Z,14.170837
2023-02-17T14:48:03.306Z,14.180908
2023-02-17T14:49:12.987Z,14.150696
2023-02-17T14:50:21.663Z,14.170837
2023-02-17T14:51:30.288Z,14.170837
2023-02-17T14:52:39.918Z,14.180908
2023-02-17T14:53:48.718Z,14.170837
2023-02-17T14:54:58.391Z,14.20105
2023-02-17T14:56:08.383Z,14.20105
2023-02-17T14:57:16.718Z,14.20105
2023-02-17T14:58:25.402Z,14.20105
2023-02-17T14:59:35.098Z,14.20105
2023-02-17T15:00:44.744Z,14.170837
2023-02-17T15:01:53.436Z,14.140625
2023-02-17T15:03:03.061Z,14.140625
2023-02-17T15:04:10.731Z,14.120483
2023-02-17T15:05:19.373Z,14.110413
2023-02-17T15:06:32.229Z,14.100342
2023-02-17T15:07:36.685Z,14.070129
2023-02-17T15:08:46.388Z,14.049988
2023-02-17T15:09:54.089Z,14.029846
2023-02-17T15:11:03.711Z,14.029846
2023-02-17T15:12:13.359Z,13.989563
2023-02-17T15:13:21.057Z,13.999634
2023-02-17T15:14:30.722Z,13.989563
2023-02-17T15:15:39.404Z,13.999634
2023-02-17T15:16:49.028Z,13.989563
2023-02-17T15:17:58.677Z,13.989563
2023-02-17T15:19:06.369Z,13.999634
2023-02-17T15:20:15.000Z,13.999634
2023-02-17T15:21:24.676Z,13.989563
2023-02-17T15:22:32.314Z,13.999634
2023-02-17T15:23:41.988Z,14.029846
2023-02-17T15:24:50.649Z,14.029846
2023-02-17T15:25:59.307Z,13.999634
2023-02-17T15:27:08.969Z,13.989563
2023-02-17T15:28:17.594Z,13.959351
2023-02-17T15:29:26.296Z,13.959351
2023-02-17T15:30:36.017Z,13.858643
2023-02-17T15:31:45.716Z,13.717651
2023-02-17T15:32:55.277Z,13.556519
2023-02-17T15:34:03.926Z,13.415527
2023-02-17T15:35:11.592Z,13.314819
2023-02-17T15:36:21.234Z,13.314819
2023-02-17T15:37:28.879Z,13.274536
2023-02-17T15:38:37.513Z,13.254395
2023-02-17T15:39:47.279Z,13.254395
2023-02-17T15:40:54.955Z,13.314819
2023-02-17T15:42:04.669Z,13.314819
2023-02-17T15:43:14.317Z,13.334961
2023-02-17T15:44:24.012Z,13.314819
2023-02-17T15:45:33.659Z,13.314819
2023-02-17T15:46:42.336Z,13.375244
2023-02-17T15:47:51.962Z,13.415527
2023-02-17T15:49:01.611Z,13.465881
2023-02-17T15:50:09.246Z,13.486023
2023-02-17T15:51:19.882Z,13.465881
2023-02-17T15:52:28.529Z,13.455811
2023-02-17T15:53:37.176Z,13.465881
2023-02-17T15:54:46.865Z,13.496094
2023-02-17T15:55:56.512Z,13.405457
2023-02-17T15:57:05.140Z,13.254395
2023-02-17T15:58:14.810Z,13.093262
2023-02-17T15:59:24.488Z,13.042908
2023-02-17T16:00:34.175Z,12.982483
2023-02-17T16:01:42.774Z,13.032837
2023-02-17T16:02:51.422Z,13.042908
2023-02-17T16:04:01.121Z,13.093262
2023-02-17T16:05:10.764Z,13.133545
2023-02-17T16:06:19.432Z,13.19397
2023-02-17T16:07:28.073Z,13.224182
2023-02-17T16:08:38.723Z,13.274536
2023-02-17T16:09:48.420Z,13.304749
2023-02-17T16:10:56.076Z,13.334961
2023-02-17T16:12:05.728Z,13.345032
2023-02-17T16:13:14.389Z,13.365173
2023-02-17T16:14:23.050Z,13.385315
2023-02-17T16:15:32.742Z,13.385315
2023-02-17T16:16:41.473Z,13.365173
2023-02-17T16:17:50.028Z,13.375244
2023-02-17T16:18:59.708Z,13.365173
2023-02-17T16:20:09.411Z,13.365173
2023-02-17T16:21:19.028Z,13.334961
2023-02-17T16:22:27.661Z,13.334961
2023-02-17T16:23:35.303Z,13.314819
2023-02-17T16:24:44.983Z,13.304749
2023-02-17T16:25:53.636Z,13.304749
2023-02-17T16:27:03.286Z,13.304749
2023-02-17T16:28:12.928Z,13.314819
2023-02-17T16:29:20.607Z,13.314819
2023-02-17T16:30:30.318Z,13.314819
2023-02-17T16:31:39.028Z,13.304749
2023-02-17T16:32:46.579Z,13.284607
2023-02-17T16:33:56.235Z,13.254395
2023-02-17T16:35:04.903Z,13.224182
2023-02-17T16:36:13.570Z,13.204041
2023-02-17T16:37:23.187Z,13.153687
2023-02-17T16:38:31.839Z,13.133545
2023-02-17T16:39:41.481Z,13.153687
2023-02-17T16:40:50.158Z,13.133545
2023-02-17T16:41:57.820Z,13.133545
2023-02-17T16:43:07.471Z,13.113403
2023-02-17T16:44:15.114Z,13.093262
2023-02-17T16:45:24.921Z,13.123474
2023-02-17T16:46:34.441Z,13.113403
2023-02-17T16:47:43.092Z,13.113403
2023-02-17T16:48:52.752Z,13.083191
2023-02-17T16:50:01.451Z,13.042908
2023-02-17T16:51:09.154Z,13.032837
2023-02-17T16:52:18.859Z,13.032837
2023-02-17T16:53:28.506Z,12.982483
2023-02-17T16:54:37.165Z,12.952271
2023-02-17T16:55:45.831Z,12.901917
2023-02-17T16:56:53.475Z,12.901917
2023-02-17T16:58:03.129Z,12.851562
2023-02-17T16:59:12.776Z,12.851562
2023-02-17T17:00:21.474Z,12.791138
2023-02-17T17:01:31.145Z,12.781067
2023-02-17T17:02:39.875Z,12.760925
2023-02-17T17:03:48.537Z,12.7005
2023-02-17T17:04:58.170Z,12.680359
2023-02-17T17:06:08.050Z,12.7005
2023-02-17T17:07:17.506Z,12.7005
2023-02-17T17:08:26.173Z,12.7005
2023-02-17T17:09:35.874Z,12.670288
2023-02-17T17:10:46.560Z,12.680359
2023-02-17T17:11:54.194Z,12.670288
2023-02-17T17:13:02.917Z,12.670288
2023-02-17T17:14:12.593Z,12.650146
2023-02-17T17:15:22.243Z,12.650146
2023-02-17T17:16:31.974Z,12.640076
2023-02-17T17:17:40.576Z,12.640076
2023-02-17T17:18:49.210Z,12.650146
2023-02-17T17:19:58.875Z,12.640076
2023-02-17T17:21:07.554Z,12.609863
2023-02-17T17:22:18.200Z,12.609863
2023-02-17T17:23:27.869Z,12.619934
2023-02-17T17:24:36.565Z,12.619934
2023-02-17T17:25:46.198Z,12.599792
2023-02-17T17:26:54.833Z,12.56958
2023-02-17T17:28:03.483Z,12.549438
2023-02-17T17:29:13.134Z,12.599792
2023-02-17T17:30:20.847Z,12.619934
2023-02-17T17:31:29.712Z,12.650146
2023-02-17T17:32:39.118Z,12.640076
2023-02-17T17:33:46.759Z,12.650146
2023-02-17T17:34:56.397Z,12.640076
2023-02-17T17:36:05.442Z,12.640076
2023-02-17T17:37:13.738Z,12.640076
2023-02-17T17:38:24.452Z,12.619934
2023-02-17T17:39:33.096Z,12.609863
2023-02-17T17:40:42.770Z,12.579651
2023-02-17T17:41:52.405Z,12.539368
2023-02-17T17:43:01.051Z,12.549438
2023-02-17T17:44:10.702Z,12.599792
2023-02-17T17:45:19.393Z,12.609863
2023-02-17T17:46:27.052Z,12.640076
2023-02-17T17:47:36.686Z,12.640076
2023-02-17T17:48:46.329Z,12.640076
2023-02-17T17:49:54.969Z,12.619934
2023-02-17T17:51:04.646Z,12.56958
2023-02-17T17:52:13.283Z,12.539368
2023-02-17T17:53:22.931Z,12.539368
2023-02-17T17:54:31.599Z,12.599792
2023-02-17T17:55:40.290Z,12.599792
2023-02-17T17:56:49.961Z,12.619934
2023-02-17T17:57:59.602Z,12.640076
2023-02-17T17:59:09.303Z,12.609863
2023-02-17T18:00:18.960Z,12.609863
2023-02-17T18:01:28.673Z,12.599792
2023-02-17T18:02:38.277Z,12.599792
2023-02-17T18:03:46.917Z,12.549438
2023-02-17T18:04:56.624Z,12.56958
2023-02-17T18:06:05.557Z,12.599792
2023-02-17T18:07:13.941Z,12.599792
2023-02-17T18:08:21.640Z,12.619934
2023-02-17T18:09:32.342Z,12.640076
2023-02-17T18:10:40.014Z,12.619934
2023-02-17T18:11:49.687Z,12.609863
2023-02-17T18:12:56.341Z,12.609863
2023-02-17T18:14:05.996Z,12.579651
2023-02-17T18:15:15.645Z,12.549438
2023-02-17T18:16:24.364Z,12.529297
2023-02-17T18:17:34.024Z,12.529297
2023-02-17T18:18:41.668Z,12.539368
2023-02-17T18:19:50.297Z,12.549438
2023-02-17T18:20:59.941Z,12.539368
2023-02-17T18:22:08.637Z,12.56958
2023-02-17T18:23:18.330Z,12.56958
2023-02-17T18:24:26.980Z,12.609863
2023-02-17T18:25:34.612Z,12.609863
2023-02-17T18:26:44.322Z,12.579651
2023-02-17T18:27:52.975Z,12.529297
2023-02-17T18:29:01.645Z,12.549438
2023-02-17T18:30:11.308Z,12.579651
2023-02-17T18:31:19.019Z,12.650146
2023-02-17T18:32:28.631Z,12.619934
2023-02-17T18:33:38.299Z,12.640076
2023-02-17T18:34:45.957Z,12.609863
2023-02-17T18:35:55.609Z,12.599792
2023-02-17T18:37:04.284Z,12.609863
2023-02-17T18:38:12.938Z,12.609863
2023-02-17T18:39:22.588Z,12.609863
2023-02-17T18:40:31.269Z,12.609863
2023-02-17T18:41:40.925Z,12.56958
2023-02-17T18:42:49.581Z,12.539368
2023-02-17T18:43:59.252Z,12.56958
2023-02-17T18:45:08.923Z,12.599792
2023-02-17T18:46:18.567Z,12.609863
2023-02-17T18:47:27.189Z,12.650146
2023-02-17T18:48:36.837Z,12.619934
2023-02-17T18:49:45.505Z,12.650146
2023-02-17T18:50:55.151Z,12.640076
2023-02-17T18:52:03.833Z,12.650146
2023-02-17T18:53:11.457Z,12.599792
2023-02-17T18:54:21.114Z,12.599792
2023-02-17T18:55:29.752Z,12.579651
2023-02-17T18:56:38.415Z,12.56958
2023-02-17T18:57:48.079Z,12.599792
2023-02-17T18:58:55.720Z,12.609863
2023-02-17T19:00:05.366Z,12.619934
2023-02-17T19:01:15.252Z,12.640076
2023-02-17T19:02:24.684Z,12.650146
2023-02-17T19:03:34.346Z,12.619934
2023-02-17T19:04:43.983Z,12.609863
2023-02-17T19:05:51.636Z,12.619934
2023-02-17T19:07:01.300Z,12.650146
2023-02-17T19:08:08.945Z,12.650146
2023-02-17T19:09:18.593Z,12.650146
2023-02-17T19:10:27.286Z,12.640076
2023-02-17T19:11:35.964Z,12.650146
2023-02-17T19:12:45.604Z,12.619934
2023-02-17T19:13:54.271Z,12.619934
2023-02-17T19:15:03.926Z,12.619934
2023-02-17T19:16:13.712Z,12.599792
2023-02-17T19:17:22.284Z,12.579651
2023-02-17T19:18:31.908Z,12.549438
2023-02-17T19:19:40.573Z,12.599792
2023-02-17T19:20:50.219Z,12.599792
2023-02-17T19:21:59.900Z,12.609863
2023-02-17T19:23:08.537Z,12.619934
2023-02-17T19:24:17.190Z,12.670288
2023-02-17T19:25:26.855Z,12.619934
2023-02-17T19:26:35.521Z,12.670288
2023-02-17T19:27:45.177Z,12.670288
2023-02-17T19:28:53.812Z,12.670288
2023-02-17T19:30:02.568Z,12.670288
2023-02-17T19:31:12.272Z,12.7005
2023-02-17T19:32:19.777Z,12.730713
2023-02-17T19:33:28.442Z,12.720642
2023-02-17T19:34:38.080Z,12.730713
2023-02-17T19:35:46.727Z,12.781067
2023-02-17T19:36:56.400Z,12.82135
2023-02-17T19:38:06.056Z,12.82135
2023-02-17T19:39:15.706Z,12.831421
2023-02-17T19:40:25.351Z,12.861633
2023-02-17T19:41:35.671Z,12.851562
2023-02-17T19:42:41.676Z,12.831421
2023-02-17T19:43:51.342Z,12.791138
2023-02-17T19:45:00.999Z,12.781067
2023-02-17T19:46:10.919Z,12.750854
2023-02-17T19:47:20.357Z,12.781067
2023-02-17T19:48:28.020Z,12.791138
2023-02-17T19:49:37.695Z,12.760925
2023-02-17T19:50:47.318Z,12.750854
2023-02-17T19:51:55.981Z,12.791138
2023-02-17T19:53:05.774Z,12.791138
2023-02-17T19:54:14.428Z,12.831421
2023-02-17T19:55:23.065Z,12.861633
2023-02-17T19:56:31.733Z,12.932129
2023-02-17T19:57:41.487Z,12.932129
2023-02-17T19:58:51.156Z,12.9422
2023-02-17T19:59:57.783Z,12.9422
2023-02-17T20:01:06.421Z,12.901917
2023-02-17T20:02:16.107Z,12.972412
2023-02-17T20:03:25.807Z,12.982483
2023-02-17T20:04:35.464Z,12.952271
2023-02-17T20:05:43.126Z,12.9422
2023-02-17T20:06:52.757Z,12.871704
2023-02-17T20:08:01.434Z,12.861633
2023-02-17T20:09:09.083Z,12.871704
2023-02-17T20:10:18.743Z,12.871704
2023-02-17T20:11:26.379Z,12.952271
2023-02-17T20:12:36.116Z,13.012695
2023-02-17T20:13:46.713Z,13.002625
2023-02-17T20:14:53.445Z,13.012695
2023-02-17T20:16:03.173Z,13.012695
2023-02-17T20:17:11.737Z,13.032837
2023-02-17T20:18:19.420Z,12.982483
2023-02-17T20:19:29.072Z,12.9422
2023-02-17T20:20:37.721Z,12.911987
2023-02-17T20:21:46.424Z,12.952271
2023-02-17T20:22:56.056Z,12.982483
2023-02-17T20:24:04.709Z,12.952271
2023-02-17T20:25:14.358Z,12.9422
2023-02-17T20:26:22.994Z,12.932129
2023-02-17T20:27:30.662Z,12.871704
2023-02-17T20:28:40.317Z,12.861633
2023-02-17T20:29:49.946Z,12.82135
2023-02-17T20:30:59.667Z,12.82135
2023-02-17T20:32:09.422Z,12.871704
2023-02-17T20:33:17.951Z,12.911987
2023-02-17T20:34:27.591Z,12.911987
2023-02-17T20:35:37.248Z,12.901917
2023-02-17T20:36:45.882Z,12.871704
2023-02-17T20:37:56.561Z,12.861633
2023-02-17T20:39:06.204Z,12.851562
2023-02-17T20:40:15.863Z,12.871704
2023-02-17T20:41:25.516Z,12.861633
2023-02-17T20:42:35.204Z,12.861633
2023-02-17T20:43:44.867Z,12.861633
2023-02-17T20:44:54.516Z,12.901917
2023-02-17T20:46:03.158Z,12.871704
2023-02-17T20:47:12.814Z,12.871704
2023-02-17T20:48:21.474Z,12.871704
2023-02-17T20:49:30.135Z,12.952271
2023-02-17T20:50:39.786Z,12.952271
2023-02-17T20:51:47.553Z,12.952271
2023-02-17T20:52:57.104Z,12.9422
2023-02-17T20:54:05.782Z,12.952271
2023-02-17T20:55:15.414Z,12.952271
2023-02-17T20:56:25.086Z,12.952271
2023-02-17T20:57:32.730Z,12.9422
2023-02-17T20:58:42.424Z,12.952271
2023-02-17T20:59:52.070Z,12.972412
2023-02-17T21:01:00.734Z,12.952271
2023-02-17T21:02:10.364Z,12.952271
2023-02-17T21:03:19.076Z,12.952271
2023-02-17T21:04:27.678Z,12.932129
2023-02-17T21:05:37.337Z,12.932129
2023-02-17T21:06:45.557Z,12.932129
2023-02-17T21:07:54.625Z,12.932129
2023-02-17T21:09:04.313Z,12.871704
2023-02-17T21:10:12.973Z,12.871704
2023-02-17T21:11:22.623Z,12.861633
2023-02-17T21:12:31.265Z,12.851562
2023-02-17T21:13:38.931Z,12.831421
2023-02-17T21:14:48.715Z,12.831421
2023-02-17T21:15:56.246Z,12.861633
2023-02-17T21:17:04.875Z,12.861633
2023-02-17T21:18:14.579Z,12.861633
2023-02-17T21:19:22.215Z,12.851562
2023-02-17T21:20:31.863Z,12.851562
2023-02-17T21:21:41.513Z,12.851562
2023-02-17T21:22:50.168Z,12.851562
2023-02-17T21:23:59.816Z,12.831421
2023-02-17T21:25:07.448Z,12.82135
2023-02-17T21:26:15.103Z,12.831421
2023-02-17T21:27:24.796Z,12.801208
2023-02-17T21:28:33.420Z,12.831421
2023-02-17T21:29:43.077Z,12.831421
2023-02-17T21:30:51.718Z,12.851562
2023-02-17T21:32:00.465Z,12.831421
2023-02-17T21:33:10.013Z,12.831421
2023-02-17T21:34:18.685Z,12.801208
2023-02-17T21:35:27.347Z,12.801208
2023-02-17T21:36:37.000Z,12.791138
2023-02-17T21:37:44.643Z,12.82135
2023-02-17T21:38:54.316Z,12.82135
2023-02-17T21:40:02.956Z,12.851562
2023-02-17T21:41:11.611Z,12.861633
2023-02-17T21:42:21.283Z,12.871704